createdAt,value
2018-07-25T00:00:45.704Z,7.37
2018-07-25T00:03:12.044Z,7.73
2018-07-25T00:05:38.435Z,8.00
2018-07-25T00:08:04.772Z,7.87
2018-07-25T00:10:31.173Z,7.60
2018-07-25T00:12:57.525Z,7.90
2018-07-25T00:15:23.855Z,8.37
2018-07-25T00:17:50.184Z,7.73
2018-07-25T00:20:16.511Z,8.10
2018-07-25T00:22:42.929Z,7.20
2018-07-25T00:25:09.285Z,8.10
2018-07-25T00:27:35.678Z,7.50
2018-07-25T00:30:02.012Z,8.17
2018-07-25T00:32:28.377Z,7.50
2018-07-25T00:34:54.773Z,7.77
2018-07-25T00:37:21.098Z,7.60
2018-07-25T00:39:47.429Z,8.30
2018-07-25T00:42:13.782Z,8.37
2018-07-25T00:44:40.128Z,7.60
2018-07-25T00:47:06.460Z,8.10
2018-07-25T00:49:32.786Z,7.40
2018-07-25T00:51:59.218Z,7.27
2018-07-25T00:54:25.541Z,7.70
2018-07-25T00:56:51.871Z,8.07
2018-07-25T00:59:18.222Z,7.33
2018-07-25T01:01:44.616Z,7.80
2018-07-25T01:04:10.948Z,7.53
2018-07-25T01:06:37.307Z,7.20
2018-07-25T01:09:03.640Z,7.70
2018-07-25T01:11:30.041Z,7.83
2018-07-25T01:13:56.472Z,7.30
2018-07-25T01:16:22.813Z,7.47
2018-07-25T01:18:49.150Z,7.17
2018-07-25T01:21:15.501Z,7.63
2018-07-25T01:23:41.875Z,6.50
2018-07-25T01:26:08.220Z,6.83
2018-07-25T01:28:34.562Z,6.97
2018-07-25T01:31:00.903Z,6.70
2018-07-25T01:33:27.261Z,6.60
2018-07-25T01:35:53.591Z,6.30
2018-07-25T01:38:19.929Z,6.40
2018-07-25T01:40:46.256Z,6.60
2018-07-25T01:43:12.583Z,6.70
2018-07-25T01:45:38.913Z,6.50
2018-07-25T01:48:05.318Z,6.30
2018-07-25T01:50:31.655Z,6.80
2018-07-25T01:52:57.977Z,6.10
2018-07-25T01:55:24.303Z,6.30
2018-07-25T01:57:50.659Z,6.20
2018-07-25T02:00:17.030Z,6.33
2018-07-25T02:02:43.352Z,6.50
2018-07-25T02:05:09.699Z,5.83
2018-07-25T02:07:36.057Z,5.87
2018-07-25T02:10:02.392Z,6.60
2018-07-25T02:12:28.738Z,5.97
2018-07-25T02:14:55.049Z,5.93
2018-07-25T02:17:21.384Z,6.53
2018-07-25T02:19:47.742Z,5.53
2018-07-25T02:22:14.109Z,6.47
2018-07-25T02:24:40.432Z,6.23
2018-07-25T02:27:06.773Z,6.57
2018-07-25T02:29:33.131Z,5.90
2018-07-25T02:31:59.478Z,6.00
2018-07-25T02:34:25.798Z,6.00
2018-07-25T02:36:52.135Z,5.60
2018-07-25T02:39:18.526Z,5.70
2018-07-25T02:41:44.875Z,5.80
2018-07-25T02:44:11.218Z,5.60
2018-07-25T02:46:37.581Z,6.00
2018-07-25T02:49:03.942Z,5.13
2018-07-25T02:51:30.305Z,5.80
2018-07-25T02:53:56.685Z,5.87
2018-07-25T02:56:23.116Z,5.53
2018-07-25T02:58:49.446Z,5.50
2018-07-25T03:01:15.766Z,5.70
2018-07-25T03:03:42.135Z,5.60
2018-07-25T03:06:08.467Z,4.90
2018-07-25T03:08:34.832Z,5.30
2018-07-25T03:11:01.139Z,5.80
2018-07-25T03:13:27.469Z,5.00
2018-07-25T03:15:53.859Z,5.20
2018-07-25T03:18:20.187Z,5.50
2018-07-25T03:20:46.511Z,5.07
2018-07-25T03:23:12.878Z,5.77
2018-07-25T03:25:39.223Z,5.10
2018-07-25T03:28:05.612Z,5.23
2018-07-25T03:30:31.931Z,4.67
2018-07-25T03:32:58.290Z,5.10
2018-07-25T03:35:24.678Z,5.13
2018-07-25T03:37:51.043Z,4.80
2018-07-25T03:40:17.400Z,5.00
2018-07-25T03:42:43.784Z,4.87
2018-07-25T03:45:10.101Z,5.30
2018-07-25T03:47:36.431Z,4.57
2018-07-25T03:50:02.826Z,4.97
2018-07-25T03:52:29.163Z,4.67
2018-07-25T03:54:55.519Z,5.70
2018-07-25T03:57:21.935Z,4.57
2018-07-25T03:59:48.320Z,4.97
2018-07-25T04:02:14.679Z,4.50
2018-07-25T04:04:41.079Z,4.90
2018-07-25T04:07:07.495Z,5.03
2018-07-25T04:09:33.887Z,4.87
2018-07-25T04:12:00.264Z,4.07
2018-07-25T04:14:26.627Z,4.50
2018-07-25T04:16:52.998Z,5.17
2018-07-25T04:19:19.407Z,4.60
2018-07-25T04:21:45.734Z,4.87
2018-07-25T04:24:12.088Z,4.40
2018-07-25T04:26:38.475Z,4.17
2018-07-25T04:29:04.816Z,4.40
2018-07-25T04:31:31.174Z,4.20
2018-07-25T04:33:57.504Z,4.80
2018-07-25T04:36:23.862Z,4.40
2018-07-25T04:38:50.197Z,4.70
2018-07-25T04:41:16.570Z,4.73
2018-07-25T04:43:42.903Z,4.13
2018-07-25T04:46:09.378Z,4.20
2018-07-25T04:48:35.755Z,4.13
2018-07-25T04:51:02.102Z,4.27
2018-07-25T04:53:28.461Z,4.00
2018-07-25T04:55:54.785Z,4.20
2018-07-25T04:58:21.159Z,4.40
2018-07-25T05:00:47.490Z,4.07
2018-07-25T05:03:13.880Z,4.53
2018-07-25T05:05:40.211Z,4.47
2018-07-25T05:08:06.573Z,4.20
2018-07-25T05:10:32.894Z,4.70
2018-07-25T05:12:59.260Z,4.60
2018-07-25T05:15:25.723Z,4.40
2018-07-25T05:17:52.129Z,3.80
2018-07-25T05:20:18.538Z,4.57
2018-07-25T05:22:44.928Z,4.57
2018-07-25T05:25:11.311Z,4.87
2018-07-25T05:27:37.708Z,4.00
2018-07-25T05:30:04.101Z,4.23
2018-07-25T05:32:30.489Z,4.60
2018-07-25T05:34:56.830Z,4.43
2018-07-25T05:37:23.214Z,4.43
2018-07-25T05:39:49.665Z,4.50
2018-07-25T05:42:16.052Z,4.53
2018-07-25T05:44:42.398Z,4.30
2018-07-25T05:47:08.793Z,4.70
2018-07-25T05:49:35.189Z,4.30
2018-07-25T05:52:01.593Z,4.60
2018-07-25T05:54:27.957Z,4.47
2018-07-25T05:56:54.821Z,4.90
2018-07-25T05:59:21.147Z,4.80
2018-07-25T06:01:47.525Z,4.63
2018-07-25T06:04:13.937Z,5.20
2018-07-25T06:06:40.286Z,5.00
2018-07-25T06:09:06.663Z,4.53
2018-07-25T06:11:33.084Z,4.40
2018-07-25T06:13:59.474Z,4.80
2018-07-25T06:16:25.844Z,5.20
2018-07-25T06:18:52.206Z,4.50
2018-07-25T06:21:18.704Z,4.70
2018-07-25T06:23:45.082Z,4.40
2018-07-25T06:26:11.441Z,5.37
2018-07-25T06:28:37.809Z,5.10
2018-07-25T06:31:04.213Z,5.27
2018-07-25T06:33:30.672Z,4.90
2018-07-25T06:35:57.033Z,5.27
2018-07-25T06:38:23.410Z,4.50
2018-07-25T06:40:49.766Z,5.17
2018-07-25T06:43:16.241Z,5.07
2018-07-25T06:45:42.912Z,4.73
2018-07-25T06:48:09.951Z,4.90
2018-07-25T06:50:36.428Z,5.00
2018-07-25T06:53:02.772Z,4.80
2018-07-25T06:55:29.182Z,4.93
2018-07-25T06:57:55.532Z,4.57
2018-07-25T07:00:21.894Z,4.73
2018-07-25T07:02:48.243Z,5.00
2018-07-25T07:05:14.624Z,5.67
2018-07-25T07:07:40.986Z,4.60
2018-07-25T07:10:07.371Z,5.07
2018-07-25T07:12:33.776Z,6.17
2018-07-25T07:15:00.145Z,5.43
2018-07-25T07:17:26.549Z,4.77
2018-07-25T07:19:53.077Z,5.10
2018-07-25T07:22:19.452Z,4.97
2018-07-25T07:24:45.818Z,5.20
2018-07-25T07:27:12.231Z,5.30
2018-07-25T07:29:38.623Z,4.40
2018-07-25T07:32:05.073Z,4.40
2018-07-25T07:34:31.429Z,5.13
2018-07-25T07:36:57.907Z,6.10
2018-07-25T07:39:24.270Z,4.90
2018-07-25T07:41:50.703Z,5.50
2018-07-25T07:44:17.141Z,4.90
2018-07-25T07:46:43.578Z,4.80
2018-07-25T07:49:10.022Z,5.33
2018-07-25T07:51:36.433Z,5.00
2018-07-25T07:54:02.857Z,5.10
2018-07-25T07:56:29.250Z,5.17
2018-07-25T07:58:55.814Z,5.03
2018-07-25T08:01:22.196Z,4.53
2018-07-25T08:03:48.647Z,4.73
2018-07-25T08:06:15.352Z,5.20
2018-07-25T08:08:41.752Z,5.40
2018-07-25T08:11:08.234Z,5.30
2018-07-25T08:13:34.775Z,4.50
2018-07-25T08:16:01.151Z,5.43
2018-07-25T08:18:27.501Z,4.80
2018-07-25T08:20:53.928Z,5.20
2018-07-25T08:23:20.428Z,5.40
2018-07-25T08:25:46.886Z,5.30
2018-07-25T08:28:13.337Z,4.83
2018-07-25T08:30:39.690Z,5.67
2018-07-25T08:33:06.192Z,5.57
2018-07-25T08:35:32.628Z,5.53
2018-07-25T08:37:59.232Z,5.50
2018-07-25T08:40:25.625Z,4.87
2018-07-25T08:42:51.943Z,5.17
2018-07-25T08:45:18.287Z,5.47
2018-07-25T08:47:44.660Z,5.53
2018-07-25T08:50:11.020Z,5.33
2018-07-25T08:52:37.518Z,5.70
2018-07-25T08:55:03.805Z,5.17
2018-07-25T08:57:30.179Z,5.70
2018-07-25T08:59:56.603Z,4.80
2018-07-25T09:02:23.044Z,5.20
2018-07-25T09:04:49.507Z,5.50
2018-07-25T09:07:15.965Z,5.63
2018-07-25T09:09:42.501Z,5.90
2018-07-25T09:12:08.847Z,5.57
2018-07-25T09:14:35.199Z,6.13
2018-07-25T09:17:01.548Z,5.53
2018-07-25T09:19:27.920Z,5.60
2018-07-25T09:21:54.286Z,4.67
2018-07-25T09:24:20.668Z,6.30
2018-07-25T09:26:47.013Z,5.47
2018-07-25T09:29:13.402Z,5.43
2018-07-25T09:31:39.768Z,5.80
2018-07-25T09:34:06.183Z,6.30
2018-07-25T09:36:32.527Z,6.20
2018-07-25T09:38:58.884Z,5.90
2018-07-25T09:41:25.294Z,6.50
2018-07-25T09:43:51.651Z,5.90
2018-07-25T09:46:18.085Z,6.33
2018-07-25T09:48:44.522Z,5.93
2018-07-25T09:51:10.921Z,5.90
2018-07-25T09:53:37.308Z,5.53
2018-07-25T09:56:03.670Z,5.83
2018-07-25T09:58:30.177Z,6.17
2018-07-25T10:00:56.605Z,5.80
2018-07-25T10:03:22.982Z,6.00
2018-07-25T10:05:49.405Z,5.20
2018-07-25T10:08:15.849Z,4.80
2018-07-25T10:10:42.271Z,5.73
2018-07-25T10:13:08.611Z,5.70
2018-07-25T10:15:34.978Z,5.57
2018-07-25T10:18:01.466Z,6.13
2018-07-25T10:20:27.930Z,5.73
2018-07-25T10:22:54.293Z,6.03
2018-07-25T10:25:20.707Z,6.47
2018-07-25T10:27:47.091Z,5.63
2018-07-25T10:30:13.458Z,5.40
2018-07-25T10:32:39.863Z,6.43
2018-07-25T10:35:06.242Z,5.07
2018-07-25T10:37:32.692Z,6.43
2018-07-25T10:39:59.116Z,6.00
2018-07-25T10:42:25.457Z,5.63
2018-07-25T10:44:51.928Z,6.00
2018-07-25T10:47:18.328Z,5.33
2018-07-25T10:49:44.733Z,5.47
2018-07-25T10:52:11.140Z,4.80
2018-07-25T10:54:37.589Z,6.37
2018-07-25T10:57:04.100Z,5.83
2018-07-25T10:59:30.466Z,5.57
2018-07-25T11:01:56.955Z,6.10
2018-07-25T11:04:23.385Z,6.57
2018-07-25T11:06:51.302Z,6.17
2018-07-25T11:09:17.677Z,6.00
2018-07-25T11:11:44.411Z,5.73
2018-07-25T11:14:10.852Z,6.10
2018-07-25T11:16:37.535Z,7.10
2018-07-25T11:19:03.756Z,5.50
2018-07-25T11:21:30.156Z,6.00
2018-07-25T11:23:56.540Z,5.97
2018-07-25T11:26:22.964Z,6.17
2018-07-25T11:28:49.350Z,6.03
2018-07-25T11:31:15.779Z,6.00
2018-07-25T11:33:42.224Z,5.70
2018-07-25T11:36:08.657Z,6.10
2018-07-25T11:38:35.057Z,5.33
2018-07-25T11:41:01.486Z,6.03
2018-07-25T11:43:27.907Z,5.30
2018-07-25T11:45:54.294Z,5.97
2018-07-25T11:48:20.710Z,5.27
2018-07-25T11:50:47.091Z,5.70
2018-07-25T11:53:13.499Z,5.17
2018-07-25T11:55:39.934Z,5.90
2018-07-25T11:58:06.239Z,5.20
2018-07-25T12:00:32.690Z,6.57
2018-07-25T12:02:59.083Z,5.70
2018-07-25T12:05:25.546Z,5.30
2018-07-25T12:07:51.963Z,6.00
2018-07-25T12:10:18.352Z,5.50
2018-07-25T12:12:44.915Z,5.20
2018-07-25T12:15:11.334Z,5.07
2018-07-25T12:17:37.826Z,5.33
2018-07-25T12:20:04.280Z,5.30
2018-07-25T12:22:30.670Z,5.93
2018-07-25T12:24:57.121Z,5.57
2018-07-25T12:27:23.551Z,5.33
2018-07-25T12:29:49.951Z,5.33
2018-07-25T12:32:16.375Z,4.70
2018-07-25T12:34:42.818Z,5.33
2018-07-25T12:37:09.286Z,5.07
2018-07-25T12:39:35.710Z,5.80
2018-07-25T12:42:02.081Z,5.67
2018-07-25T12:44:28.476Z,5.77
2018-07-25T12:46:54.910Z,5.30
2018-07-25T12:49:21.343Z,5.77
2018-07-25T12:51:47.763Z,5.50
2018-07-25T12:54:14.260Z,5.47
2018-07-25T12:56:40.562Z,5.63
2018-07-25T12:59:06.968Z,6.20
2018-07-25T13:01:33.402Z,5.80
2018-07-25T13:03:59.859Z,6.00
2018-07-25T13:06:26.367Z,5.23
2018-07-25T13:08:52.749Z,5.73
2018-07-25T13:11:19.156Z,5.17
2018-07-25T13:13:45.666Z,5.10
2018-07-25T13:16:12.099Z,5.00
2018-07-25T13:18:38.533Z,5.40
2018-07-25T13:21:05.069Z,5.07
2018-07-25T13:23:31.581Z,5.37
2018-07-25T13:25:57.992Z,4.17
2018-07-25T13:28:24.473Z,4.70
2018-07-25T13:30:50.877Z,5.50
2018-07-25T13:33:17.412Z,5.07
2018-07-25T13:35:43.823Z,4.37
2018-07-25T13:38:10.203Z,4.90
2018-07-25T13:40:36.635Z,5.37
2018-07-25T13:43:03.628Z,5.30
2018-07-25T13:45:30.065Z,4.90
2018-07-25T13:47:56.548Z,4.30
2018-07-25T13:50:23.440Z,4.73
2018-07-25T13:52:49.879Z,4.93
2018-07-25T13:55:16.268Z,4.90
2018-07-25T13:57:42.695Z,4.40
2018-07-25T14:00:09.117Z,4.80
2018-07-25T14:02:35.510Z,4.40
2018-07-25T14:05:01.919Z,4.43
2018-07-25T14:07:28.322Z,4.00
2018-07-25T14:09:54.733Z,4.70
2018-07-25T14:12:21.133Z,4.60
2018-07-25T14:14:47.535Z,5.20
2018-07-25T14:17:14.000Z,4.67
2018-07-25T14:19:40.401Z,4.30
2018-07-25T14:22:06.822Z,4.90
2018-07-25T14:24:33.240Z,4.83
2018-07-25T14:26:59.662Z,4.83
2018-07-25T14:29:26.115Z,5.00
2018-07-25T14:31:52.521Z,4.50
2018-07-25T14:34:18.983Z,4.60
2018-07-25T14:36:45.260Z,3.80
2018-07-25T14:39:11.715Z,4.70
2018-07-25T14:41:38.069Z,4.40
2018-07-25T14:44:04.560Z,4.77
2018-07-25T14:46:31.128Z,4.50
2018-07-25T14:48:57.692Z,4.00
2018-07-25T14:51:24.080Z,4.43
2018-07-25T14:53:50.444Z,3.90
2018-07-25T14:56:16.878Z,5.00
2018-07-25T14:58:43.264Z,4.10
2018-07-25T15:01:09.681Z,4.20
2018-07-25T15:03:36.003Z,3.53
2018-07-25T15:06:02.406Z,4.20
2018-07-25T15:08:28.791Z,3.73
2018-07-25T15:10:55.274Z,4.03
2018-07-25T15:13:21.629Z,4.03
2018-07-25T15:15:48.050Z,5.20
2018-07-25T15:18:14.421Z,4.30
2018-07-25T15:20:40.848Z,4.10
2018-07-25T15:23:07.223Z,5.03
2018-07-25T15:25:33.647Z,4.20
2018-07-25T15:28:00.051Z,4.30
2018-07-25T15:30:26.525Z,4.10
2018-07-25T15:32:52.918Z,3.67
2018-07-25T15:35:19.299Z,4.20
2018-07-25T15:37:45.687Z,5.07
2018-07-25T15:40:12.123Z,4.23
2018-07-25T15:42:38.722Z,5.20
2018-07-25T15:45:05.147Z,4.30
2018-07-25T15:47:31.584Z,4.20
2018-07-25T15:49:57.891Z,4.37
2018-07-25T15:52:24.256Z,3.83
2018-07-25T15:54:50.628Z,4.00
2018-07-25T15:57:17.054Z,4.50
2018-07-25T15:59:43.439Z,3.80
2018-07-25T16:02:09.788Z,3.67
2018-07-25T16:04:36.169Z,4.87
2018-07-25T16:07:02.514Z,4.57
2018-07-25T16:09:28.866Z,4.40
2018-07-25T16:11:55.343Z,3.90
2018-07-25T16:14:21.699Z,3.90
2018-07-25T16:16:48.093Z,4.27
2018-07-25T16:19:14.464Z,4.97
2018-07-25T16:21:40.869Z,4.20
2018-07-25T16:24:07.235Z,4.17
2018-07-25T16:26:33.591Z,3.83
2018-07-25T16:28:59.956Z,4.40
2018-07-25T16:31:26.388Z,3.87
2018-07-25T16:33:52.808Z,3.60
2018-07-25T16:36:19.192Z,3.70
2018-07-25T16:38:45.552Z,3.53
2018-07-25T16:41:11.954Z,4.20
2018-07-25T16:43:38.324Z,3.83
2018-07-25T16:46:04.714Z,3.10
2018-07-25T16:48:31.082Z,3.33
2018-07-25T16:50:57.442Z,3.17
2018-07-25T16:53:23.838Z,3.27
2018-07-25T16:55:50.239Z,2.90
2018-07-25T16:58:16.655Z,3.23
2018-07-25T17:00:43.107Z,3.37
2018-07-25T17:03:09.454Z,3.20
2018-07-25T17:05:35.849Z,3.00
2018-07-25T17:08:02.405Z,3.77
2018-07-25T17:10:28.765Z,3.70
2018-07-25T17:12:55.122Z,3.33
2018-07-25T17:15:21.525Z,3.77
2018-07-25T17:17:47.933Z,3.60
2018-07-25T17:20:14.285Z,3.50
2018-07-25T17:22:40.651Z,3.47
2018-07-25T17:25:06.991Z,3.40
2018-07-25T17:27:33.426Z,3.60
2018-07-25T17:29:59.767Z,3.23
2018-07-25T17:32:26.124Z,3.73
2018-07-25T17:34:52.480Z,3.67
2018-07-25T17:37:18.852Z,3.60
2018-07-25T17:39:45.197Z,3.33
2018-07-25T17:42:11.588Z,3.03
2018-07-25T17:44:37.960Z,3.87
2018-07-25T17:47:04.379Z,3.30
2018-07-25T17:49:30.743Z,3.70
2018-07-25T17:51:57.105Z,3.40
2018-07-25T17:54:23.486Z,3.70
2018-07-25T17:56:49.882Z,3.40
2018-07-25T17:59:16.267Z,3.47
2018-07-25T18:01:42.632Z,3.50
2018-07-25T18:04:09.020Z,3.50
2018-07-25T18:06:35.568Z,3.60
2018-07-25T18:09:01.925Z,3.07
2018-07-25T18:11:28.286Z,3.70
2018-07-25T18:13:54.646Z,3.77
2018-07-25T18:16:20.995Z,3.60
2018-07-25T18:18:47.424Z,3.20
2018-07-25T18:21:13.812Z,3.30
2018-07-25T18:23:40.165Z,3.57
2018-07-25T18:26:06.545Z,3.17
2018-07-25T18:28:32.905Z,3.67
2018-07-25T18:30:59.314Z,3.10
2018-07-25T18:33:25.684Z,3.40
2018-07-25T18:35:52.054Z,3.40
2018-07-25T18:38:18.412Z,3.03
2018-07-25T18:40:44.811Z,3.10
2018-07-25T18:43:11.170Z,3.00
2018-07-25T18:45:37.544Z,3.63
2018-07-25T18:48:03.909Z,3.17
2018-07-25T18:50:30.272Z,3.40
2018-07-25T18:52:56.663Z,4.20
2018-07-25T18:55:23.051Z,3.50
2018-07-25T18:57:49.399Z,3.80
2018-07-25T19:00:15.744Z,4.13
2018-07-25T19:02:42.106Z,3.67
2018-07-25T19:05:08.453Z,3.43
2018-07-25T19:07:34.838Z,4.00
2018-07-25T19:10:01.151Z,3.90
2018-07-25T19:12:27.485Z,3.40
2018-07-25T19:14:53.862Z,3.13
2018-07-25T19:17:20.228Z,4.03
2018-07-25T19:19:46.614Z,3.53
2018-07-25T19:22:12.945Z,3.73
2018-07-25T19:24:39.284Z,3.53
2018-07-25T19:27:05.610Z,3.93
2018-07-25T19:29:32.044Z,3.80
2018-07-25T19:31:58.472Z,3.40
2018-07-25T19:34:24.848Z,3.40
2018-07-25T19:36:51.233Z,3.53
2018-07-25T19:39:17.562Z,3.80
2018-07-25T19:41:43.894Z,3.80
2018-07-25T19:44:10.266Z,4.03
2018-07-25T19:46:36.666Z,4.20
2018-07-25T19:49:03.023Z,3.97
2018-07-25T19:51:29.347Z,4.13
2018-07-25T19:53:55.756Z,3.80
2018-07-25T19:56:22.103Z,3.73
2018-07-25T19:58:48.449Z,4.40
2018-07-25T20:01:14.785Z,4.60
2018-07-25T20:03:41.193Z,4.23
2018-07-25T20:06:07.507Z,4.23
2018-07-25T20:08:33.838Z,4.03
2018-07-25T20:11:00.196Z,3.70
2018-07-25T20:13:26.557Z,3.87
2018-07-25T20:15:52.891Z,3.80
2018-07-25T20:18:19.335Z,4.10
2018-07-25T20:20:45.712Z,4.80
2018-07-25T20:23:12.049Z,4.20
2018-07-25T20:25:38.390Z,4.07
2018-07-25T20:28:04.761Z,4.10
2018-07-25T20:30:31.121Z,4.10
2018-07-25T20:32:57.437Z,3.90
2018-07-25T20:35:24.527Z,4.20
2018-07-25T20:37:50.872Z,4.30
2018-07-25T20:40:17.278Z,4.70
2018-07-25T20:42:43.620Z,4.10
2018-07-25T20:45:09.973Z,4.17
2018-07-25T20:47:36.311Z,4.60
2018-07-25T20:50:02.676Z,4.53
2018-07-25T20:52:29.017Z,4.00
2018-07-25T20:54:55.350Z,4.00
2018-07-25T20:57:21.678Z,4.60
2018-07-25T20:59:48.106Z,4.33
2018-07-25T21:02:14.476Z,4.30
2018-07-25T21:04:40.877Z,4.60
2018-07-25T21:07:07.256Z,4.10
2018-07-25T21:09:33.580Z,4.40
2018-07-25T21:11:59.964Z,4.40
2018-07-25T21:14:26.306Z,4.27
2018-07-25T21:16:52.645Z,4.17
2018-07-25T21:19:19.009Z,5.10
2018-07-25T21:21:45.401Z,4.73
2018-07-25T21:24:11.768Z,4.13
2018-07-25T21:26:38.078Z,4.60
2018-07-25T21:29:04.411Z,4.40
2018-07-25T21:31:30.830Z,5.03
2018-07-25T21:33:57.172Z,5.17
2018-07-25T21:36:23.493Z,4.73
2018-07-25T21:38:49.804Z,4.70
2018-07-25T21:41:16.146Z,4.70
2018-07-25T21:43:42.539Z,4.30
2018-07-25T21:46:08.904Z,4.90
2018-07-25T21:48:35.230Z,4.77
2018-07-25T21:51:01.593Z,5.07
2018-07-25T21:53:27.946Z,5.67
2018-07-25T21:55:54.314Z,4.80
2018-07-25T21:58:20.648Z,5.00
2018-07-25T22:00:46.965Z,5.07
2018-07-25T22:03:13.303Z,5.20
2018-07-25T22:05:39.636Z,4.60
2018-07-25T22:08:06.014Z,4.60
2018-07-25T22:10:32.373Z,4.90
2018-07-25T22:12:58.695Z,4.90
2018-07-25T22:15:25.103Z,5.03
2018-07-25T22:17:51.446Z,5.20
2018-07-25T22:20:17.793Z,5.13
2018-07-25T22:22:44.208Z,5.47
2018-07-25T22:25:10.563Z,4.80
2018-07-25T22:27:36.914Z,5.60
2018-07-25T22:30:03.279Z,5.93
2018-07-25T22:32:29.630Z,4.83
2018-07-25T22:34:55.951Z,5.10
2018-07-25T22:37:22.266Z,4.80
2018-07-25T22:39:48.586Z,4.90
2018-07-25T22:42:14.903Z,4.80
2018-07-25T22:44:41.233Z,5.47
2018-07-25T22:47:07.574Z,5.57
2018-07-25T22:49:33.936Z,5.40
2018-07-25T22:52:00.286Z,5.17
2018-07-25T22:54:26.647Z,5.43
2018-07-25T22:56:53.005Z,4.97
2018-07-25T22:59:19.314Z,5.20
2018-07-25T23:01:45.659Z,5.63
2018-07-25T23:04:11.963Z,5.00
2018-07-25T23:06:38.327Z,5.10
2018-07-25T23:09:04.713Z,5.60
2018-07-25T23:11:31.054Z,4.70
2018-07-25T23:13:57.378Z,5.03
2018-07-25T23:16:23.709Z,5.23
2018-07-25T23:18:50.095Z,5.20
2018-07-25T23:21:16.446Z,5.97
2018-07-25T23:23:42.779Z,5.10
2018-07-25T23:26:09.106Z,5.87
2018-07-25T23:28:35.434Z,5.93
2018-07-25T23:31:01.762Z,5.27
2018-07-25T23:33:28.166Z,5.20
2018-07-25T23:35:54.521Z,4.73
2018-07-25T23:38:20.855Z,5.47
2018-07-25T23:40:47.191Z,5.47
2018-07-25T23:43:13.533Z,5.50
2018-07-25T23:45:39.868Z,5.57
2018-07-25T23:48:06.193Z,5.40
2018-07-25T23:50:32.561Z,5.50
2018-07-25T23:52:58.919Z,5.40
2018-07-25T23:55:25.256Z,5.30
2018-07-25T23:57:51.580Z,5.27
